createdAt,value
2023-05-01T00:01:58.520Z,102041.94
2023-05-01T00:04:25.090Z,102045.53
2023-05-01T00:06:51.847Z,102048.38
2023-05-01T00:09:18.613Z,102045.19
2023-05-01T00:11:46.233Z,102042.41
2023-05-01T00:14:13.001Z,102039.97
2023-05-01T00:16:39.540Z,102036.59
2023-05-01T00:19:06.020Z,102034.44
2023-05-01T00:21:32.452Z,102034.88
2023-05-01T00:23:59.152Z,102025.53
2023-05-01T00:26:30.356Z,102024.66
2023-05-01T00:28:58.352Z,102023.84
2023-05-01T00:31:25.743Z,102023.09
2023-05-01T00:33:52.811Z,102021.50
2023-05-01T00:36:19.652Z,102018.88
2023-05-01T00:38:46.405Z,102009.94
2023-05-01T00:41:13.297Z,102004.28
2023-05-01T00:43:40.124Z,102004.97
2023-05-01T00:46:07.804Z,102001.22
2023-05-01T00:48:34.627Z,101998.75
2023-05-01T00:51:04.585Z,101998.59
2023-05-01T00:53:33.074Z,101998.94
2023-05-01T00:56:00.786Z,101993.59
2023-05-01T00:58:27.923Z,101989.59
2023-05-01T01:00:55.210Z,101987.91
2023-05-01T01:03:21.781Z,101981.53
2023-05-01T01:06:13.556Z,101994.09
2023-05-01T01:08:45.810Z,101986.50
2023-05-01T01:11:28.387Z,101989.59
2023-05-01T01:14:15.605Z,101977.22
2023-05-01T01:16:59.583Z,101981.44
2023-05-01T01:19:51.621Z,101973.28
2023-05-01T01:22:24.079Z,101975.91
2023-05-01T01:25:02.073Z,101972.44
2023-05-01T01:27:47.494Z,101972.59
2023-05-01T01:30:42.460Z,101976.56
2023-05-01T01:33:30.517Z,101974.34
2023-05-01T01:36:05.417Z,101976.56
2023-05-01T01:38:45.658Z,101972.59
2023-05-01T01:41:19.697Z,101969.03
2023-05-01T01:43:55.378Z,101964.25
2023-05-01T01:46:24.579Z,101966.16
2023-05-01T01:48:54.673Z,101963.38
2023-05-01T01:51:22.455Z,101959.56
2023-05-01T01:53:53.692Z,101962.81
2023-05-01T01:56:22.845Z,101952.59
2023-05-01T01:58:51.123Z,101949.72
2023-05-01T02:01:20.038Z,101947.66
2023-05-01T02:03:47.691Z,101951.19
2023-05-01T02:06:16.979Z,101939.88
2023-05-01T02:08:46.836Z,101946.16
2023-05-01T02:11:15.755Z,101940.00
2023-05-01T02:13:44.746Z,101938.84
2023-05-01T02:16:13.147Z,101933.63
2023-05-01T02:18:41.263Z,101930.13
2023-05-01T02:21:09.052Z,101927.06
2023-05-01T02:23:37.249Z,101922.38
2023-05-01T02:26:05.042Z,101925.16
2023-05-01T02:28:34.239Z,101918.25
2023-05-01T02:31:01.070Z,101923.13
2023-05-01T02:33:27.556Z,101913.47
2023-05-01T02:35:53.981Z,101913.28
2023-05-01T02:38:21.429Z,101911.59
2023-05-01T02:40:53.400Z,101909.78
2023-05-01T02:43:22.116Z,101907.94
2023-05-01T02:45:51.528Z,101907.19
2023-05-01T02:48:23.640Z,101907.09
2023-05-01T02:50:51.714Z,101909.53
2023-05-01T02:53:18.929Z,101901.13
2023-05-01T02:56:03.612Z,101897.91
2023-05-01T02:58:34.526Z,101891.03
2023-05-01T03:01:01.029Z,101893.91
2023-05-01T03:03:27.894Z,101893.81
2023-05-01T03:05:54.440Z,101885.38
2023-05-01T03:08:20.975Z,101883.72
2023-05-01T03:10:47.800Z,101887.19
2023-05-01T03:13:14.413Z,101881.44
2023-05-01T03:15:41.193Z,101873.56
2023-05-01T03:18:08.134Z,101873.94
2023-05-01T03:20:34.753Z,101871.69
2023-05-01T03:23:02.675Z,101871.69
2023-05-01T03:25:29.792Z,101868.56
2023-05-01T03:27:56.343Z,101865.22
2023-05-01T03:30:23.132Z,101859.06
2023-05-01T03:32:51.700Z,101858.88
2023-05-01T03:35:23.629Z,101853.47
2023-05-01T03:37:50.805Z,101856.53
2023-05-01T03:40:37.208Z,101851.41
2023-05-01T03:43:35.645Z,101849.09
2023-05-01T03:46:07.165Z,101843.44
2023-05-01T03:48:33.677Z,101843.97
2023-05-01T03:51:01.780Z,101845.47
2023-05-01T03:53:28.615Z,101837.59
2023-05-01T03:55:55.647Z,101830.97
2023-05-01T03:58:23.077Z,101834.84
2023-05-01T04:00:50.826Z,101830.31
2023-05-01T04:03:17.813Z,101820.78
2023-05-01T04:05:46.532Z,101823.41
2023-05-01T04:08:13.470Z,101821.28
2023-05-01T04:10:40.524Z,101824.56
2023-05-01T04:13:07.114Z,101820.69
2023-05-01T04:15:34.854Z,101823.09
2023-05-01T04:18:01.503Z,101819.13
2023-05-01T04:20:28.359Z,101813.47
2023-05-01T04:22:54.960Z,101814.72
2023-05-01T04:25:21.479Z,101810.31
2023-05-01T04:27:50.263Z,101806.53
2023-05-01T04:30:17.014Z,101807.69
2023-05-01T04:32:44.023Z,101811.78
2023-05-01T04:35:12.446Z,101807.16
2023-05-01T04:37:42.044Z,101807.91
2023-05-01T04:40:11.584Z,101816.69
2023-05-01T04:42:38.930Z,101802.41
2023-05-01T04:45:08.578Z,101811.66
2023-05-01T04:47:36.128Z,101804.03
2023-05-01T04:50:02.888Z,101805.03
2023-05-01T04:52:30.836Z,101802.97
2023-05-01T04:54:59.786Z,101796.75
2023-05-01T04:57:28.697Z,101796.75
2023-05-01T04:59:56.258Z,101803.16
2023-05-01T05:02:23.306Z,101798.41
2023-05-01T05:04:50.542Z,101791.28
2023-05-01T05:07:17.115Z,101795.25
2023-05-01T05:10:02.141Z,101797.44
2023-05-01T05:12:29.427Z,101794.72
2023-05-01T05:14:56.663Z,101793.53
2023-05-01T05:17:23.285Z,101796.28
2023-05-01T05:19:49.890Z,101794.19
2023-05-01T05:22:16.459Z,101794.28
2023-05-01T05:25:04.606Z,101793.44
2023-05-01T05:27:36.269Z,101791.84
2023-05-01T05:30:07.670Z,101789.72
2023-05-01T05:32:35.248Z,101779.84
2023-05-01T05:35:03.037Z,101780.66
2023-05-01T05:37:29.515Z,101784.41
2023-05-01T05:39:56.990Z,101775.28
2023-05-01T05:42:23.968Z,101783.22
2023-05-01T05:44:50.578Z,101777.75
2023-05-01T05:47:17.020Z,101780.16
2023-05-01T05:49:43.779Z,101778.50
2023-05-01T05:52:10.247Z,101773.72
2023-05-01T05:54:38.203Z,101778.28
2023-05-01T05:57:04.703Z,101767.09
2023-05-01T05:59:32.463Z,101765.00
2023-05-01T06:01:59.305Z,101762.63
2023-05-01T06:04:26.047Z,101757.28
2023-05-01T06:06:52.572Z,101754.06
2023-05-01T06:09:20.204Z,101761.00
2023-05-01T06:11:47.627Z,101760.19
2023-05-01T06:14:15.203Z,101754.13
2023-05-01T06:16:42.132Z,101745.13
2023-05-01T06:19:10.230Z,101751.22
2023-05-01T06:21:37.136Z,101744.63
2023-05-01T06:24:04.775Z,101746.22
2023-05-01T06:26:39.734Z,101737.56
2023-05-01T06:29:06.338Z,101750.50
2023-05-01T06:31:33.693Z,101749.78
2023-05-01T06:34:00.289Z,101750.97
2023-05-01T06:36:36.760Z,101743.53
2023-05-01T06:39:03.521Z,101737.06
2023-05-01T06:41:32.518Z,101735.25
2023-05-01T06:43:59.434Z,101724.13
2023-05-01T06:46:26.027Z,101728.06
2023-05-01T06:48:52.469Z,101730.06
2023-05-01T06:51:19.328Z,101723.09
2023-05-01T06:53:45.848Z,101722.78
2023-05-01T06:56:12.257Z,101721.78
2023-05-01T06:58:38.947Z,101718.44
2023-05-01T07:01:05.607Z,101706.13
2023-05-01T07:03:32.313Z,101706.19
2023-05-01T07:05:58.835Z,101712.00
2023-05-01T07:08:25.431Z,101705.97
2023-05-01T07:10:51.899Z,101693.38
2023-05-01T07:13:19.375Z,101690.19
2023-05-01T07:15:45.929Z,101688.16
2023-05-01T07:18:12.819Z,101696.16
2023-05-01T07:20:39.597Z,101686.47
2023-05-01T07:23:07.464Z,101683.81
2023-05-01T07:25:34.575Z,101670.41
2023-05-01T07:28:04.382Z,101678.22
2023-05-01T07:30:32.975Z,101671.41
2023-05-01T07:32:59.401Z,101667.94
2023-05-01T07:35:26.223Z,101653.16
2023-05-01T07:37:52.753Z,101653.19
2023-05-01T07:40:19.187Z,101648.44
2023-05-01T07:42:45.697Z,101658.34
2023-05-01T07:45:12.679Z,101654.84
2023-05-01T07:47:39.169Z,101649.38
2023-05-01T07:50:10.101Z,101635.81
2023-05-01T07:52:37.496Z,101627.31
2023-05-01T07:55:04.768Z,101627.50
2023-05-01T07:57:33.390Z,101633.13
2023-05-01T08:00:00.011Z,101621.41
2023-05-01T08:02:27.112Z,101621.13
2023-05-01T08:04:53.978Z,101622.06
2023-05-01T08:07:20.589Z,101615.41
2023-05-01T08:09:47.059Z,101625.34
2023-05-01T08:12:13.721Z,101628.53
2023-05-01T08:14:40.404Z,101614.00
2023-05-01T08:17:06.786Z,101606.09
2023-05-01T08:19:33.600Z,101605.75
2023-05-01T08:22:00.004Z,101611.38
2023-05-01T08:24:26.583Z,101601.25
2023-05-01T08:26:53.102Z,101597.03
2023-05-01T08:29:19.674Z,101592.50
2023-05-01T08:31:46.122Z,101596.19
2023-05-01T08:34:12.808Z,101593.53
2023-05-01T08:36:39.265Z,101582.91
2023-05-01T08:39:05.816Z,101581.25
2023-05-01T08:41:32.675Z,101578.59
2023-05-01T08:44:01.382Z,101581.94
2023-05-01T08:46:46.672Z,101576.41
2023-05-01T08:49:16.896Z,101563.59
2023-05-01T08:51:49.956Z,101559.44
2023-05-01T08:54:17.742Z,101567.81
2023-05-01T08:56:47.336Z,101561.66
2023-05-01T08:59:15.180Z,101558.34
2023-05-01T09:01:43.445Z,101551.53
2023-05-01T09:04:12.110Z,101557.66
2023-05-01T09:06:38.938Z,101569.19
2023-05-01T09:09:06.168Z,101550.88
2023-05-01T09:11:32.866Z,101560.34
2023-05-01T09:14:01.349Z,101550.53
2023-05-01T09:16:29.456Z,101531.38
2023-05-01T09:18:57.243Z,101527.56
2023-05-01T09:21:24.897Z,101534.72
2023-05-01T09:23:51.796Z,101531.56
2023-05-01T09:26:18.376Z,101530.38
2023-05-01T09:28:46.619Z,101519.53
2023-05-01T09:31:30.324Z,101529.69
2023-05-01T09:34:01.725Z,101521.34
2023-05-01T09:36:33.992Z,101508.53
2023-05-01T09:39:01.682Z,101517.47
2023-05-01T09:41:28.687Z,101510.06
2023-05-01T09:43:57.329Z,101518.22
2023-05-01T09:46:25.480Z,101509.19
2023-05-01T09:49:00.362Z,101511.50
2023-05-01T09:51:31.511Z,101516.00
2023-05-01T09:54:00.611Z,101517.28
2023-05-01T09:56:28.105Z,101513.03
2023-05-01T09:58:56.200Z,101498.72
2023-05-01T10:01:42.229Z,101500.25
2023-05-01T10:04:12.680Z,101492.91
2023-05-01T10:06:40.237Z,101498.50
2023-05-01T10:09:16.714Z,101494.38
2023-05-01T10:11:54.441Z,101482.34
2023-05-01T10:14:21.898Z,101480.19
2023-05-01T10:16:49.549Z,101471.75
2023-05-01T10:19:20.170Z,101476.81
2023-05-01T10:21:46.856Z,101470.72
2023-05-01T10:24:15.129Z,101453.22
2023-05-01T10:26:42.838Z,101458.22
2023-05-01T10:29:09.493Z,101457.28
2023-05-01T10:31:36.076Z,101450.38
2023-05-01T10:34:03.411Z,101450.28
2023-05-01T10:36:39.800Z,101441.03
2023-05-01T10:39:07.102Z,101434.97
2023-05-01T10:41:58.448Z,101444.91
2023-05-01T10:44:28.267Z,101432.69
2023-05-01T10:46:55.115Z,101430.34
2023-05-01T10:49:22.182Z,101429.06
2023-05-01T10:51:58.624Z,101428.81
2023-05-01T10:54:26.730Z,101414.66
2023-05-01T10:56:58.630Z,101409.59
2023-05-01T10:59:26.061Z,101410.41
2023-05-01T11:01:53.339Z,101419.53
2023-05-01T11:04:22.673Z,101404.31
2023-05-01T11:07:11.326Z,101403.53
2023-05-01T11:09:42.428Z,101399.59
2023-05-01T11:12:14.245Z,101386.97
2023-05-01T11:15:08.706Z,101379.81
2023-05-01T11:17:41.544Z,101378.06
2023-05-01T11:20:09.773Z,101383.06
2023-05-01T11:22:37.829Z,101372.53
2023-05-01T11:25:17.234Z,101376.59
2023-05-01T11:27:49.161Z,101373.78
2023-05-01T11:30:16.389Z,101376.28
2023-05-01T11:32:44.717Z,101364.97
2023-05-01T11:35:22.556Z,101360.41
2023-05-01T11:37:55.922Z,101355.91
2023-05-01T11:40:29.320Z,101357.25
2023-05-01T11:43:05.885Z,101355.06
2023-05-01T11:45:34.054Z,101341.13
2023-05-01T11:48:04.573Z,101337.63
2023-05-01T11:50:36.226Z,101330.72
2023-05-01T11:53:04.136Z,101343.72
2023-05-01T11:55:32.600Z,101343.75
2023-05-01T11:57:59.381Z,101340.03
2023-05-01T12:00:30.875Z,101327.22
2023-05-01T12:03:07.967Z,101333.84
2023-05-01T12:05:39.663Z,101322.91
2023-05-01T12:08:07.407Z,101321.88
2023-05-01T12:10:35.630Z,101320.63
2023-05-01T12:13:03.968Z,101325.78
2023-05-01T12:15:31.644Z,101326.81
2023-05-01T12:17:58.882Z,101335.22
2023-05-01T12:20:45.301Z,101336.31
2023-05-01T12:23:14.191Z,101333.72
2023-05-01T12:25:41.126Z,101332.78
2023-05-01T12:28:10.470Z,101320.47
2023-05-01T12:30:37.742Z,101319.50
2023-05-01T12:33:10.208Z,101322.19
2023-05-01T12:35:37.355Z,101322.06
2023-05-01T12:38:20.582Z,101309.03
2023-05-01T12:41:13.429Z,101310.91
2023-05-01T12:43:40.283Z,101314.03
2023-05-01T12:46:14.648Z,101298.81
2023-05-01T12:48:41.392Z,101308.47
2023-05-01T12:51:08.379Z,101297.13
2023-05-01T12:53:35.326Z,101296.59
2023-05-01T12:56:03.407Z,101303.66
2023-05-01T12:58:37.142Z,101293.56
2023-05-01T13:01:04.223Z,101290.25
2023-05-01T13:03:31.319Z,101292.75
2023-05-01T13:06:03.104Z,101287.38
2023-05-01T13:08:34.324Z,101283.19
2023-05-01T13:11:08.983Z,101281.13
2023-05-01T13:13:37.413Z,101279.06
2023-05-01T13:16:15.061Z,101271.84
2023-05-01T13:18:49.880Z,101278.88
2023-05-01T13:21:18.484Z,101276.97
2023-05-01T13:23:57.602Z,101278.16
2023-05-01T13:26:30.366Z,101279.38
2023-05-01T13:28:58.489Z,101280.38
2023-05-01T13:31:25.620Z,101275.72
2023-05-01T13:33:54.178Z,101277.13
2023-05-01T13:36:26.032Z,101280.41
2023-05-01T13:38:56.037Z,101275.84
2023-05-01T13:41:26.224Z,101270.09
2023-05-01T13:43:54.553Z,101273.91
2023-05-01T13:46:23.063Z,101270.47
2023-05-01T13:48:50.353Z,101272.31
2023-05-01T13:51:25.304Z,101272.09
2023-05-01T13:53:53.680Z,101262.66
2023-05-01T13:56:21.738Z,101257.03
2023-05-01T13:58:50.040Z,101260.94
2023-05-01T14:01:19.147Z,101264.28
2023-05-01T14:03:46.522Z,101251.31
2023-05-01T14:06:15.405Z,101260.38
2023-05-01T14:08:43.222Z,101254.56
2023-05-01T14:11:11.598Z,101256.31
2023-05-01T14:13:42.855Z,101248.22
2023-05-01T14:16:11.702Z,101258.00
2023-05-01T14:18:45.885Z,101244.41
2023-05-01T14:21:14.763Z,101242.16
2023-05-01T14:23:44.381Z,101248.59
2023-05-01T14:26:16.860Z,101241.66
2023-05-01T14:28:45.173Z,101250.78
2023-05-01T14:31:19.506Z,101243.16
2023-05-01T14:33:47.096Z,101245.88
2023-05-01T14:36:14.393Z,101238.88
2023-05-01T14:38:41.722Z,101236.75
2023-05-01T14:41:12.901Z,101235.56
2023-05-01T14:43:41.436Z,101239.47
2023-05-01T14:46:08.034Z,101240.03
2023-05-01T14:48:36.978Z,101235.66
2023-05-01T14:51:12.663Z,101242.66
2023-05-01T14:53:42.561Z,101244.47
2023-05-01T14:56:09.276Z,101229.72
2023-05-01T14:58:36.010Z,101235.44
2023-05-01T15:01:02.623Z,101247.03
2023-05-01T15:03:29.601Z,101244.28
2023-05-01T15:05:57.376Z,101247.56
2023-05-01T15:08:24.366Z,101245.69
2023-05-01T15:10:53.831Z,101243.19
2023-05-01T15:13:21.250Z,101242.88
2023-05-01T15:15:47.855Z,101252.81
2023-05-01T15:18:14.438Z,101249.53
2023-05-01T15:20:40.915Z,101242.75
2023-05-01T15:23:07.428Z,101246.44
2023-05-01T15:25:33.809Z,101242.53
2023-05-01T15:28:00.274Z,101240.09
2023-05-01T15:30:27.061Z,101241.75
2023-05-01T15:32:55.688Z,101249.75
2023-05-01T15:35:23.554Z,101243.53
2023-05-01T15:37:50.517Z,101256.06
2023-05-01T15:40:17.067Z,101251.09
2023-05-01T15:42:45.382Z,101257.38
2023-05-01T15:45:11.840Z,101249.66
2023-05-01T15:47:38.283Z,101257.13
2023-05-01T15:50:08.133Z,101248.81
2023-05-01T15:52:35.771Z,101245.06
2023-05-01T15:55:02.221Z,101250.97
2023-05-01T15:57:29.685Z,101250.50
2023-05-01T15:59:56.687Z,101247.09
2023-05-01T16:02:23.471Z,101256.81
2023-05-01T16:04:51.916Z,101264.69
2023-05-01T16:07:18.432Z,101271.69
2023-05-01T16:09:45.212Z,101280.31
2023-05-01T16:12:11.770Z,101281.50
2023-05-01T16:14:41.313Z,101287.78
2023-05-01T16:17:08.163Z,101279.75
2023-05-01T16:19:37.037Z,101274.69
2023-05-01T16:22:04.802Z,101284.78
2023-05-01T16:24:36.274Z,101275.75
2023-05-01T16:27:03.068Z,101287.00
2023-05-01T16:29:32.724Z,101279.75
2023-05-01T16:31:59.367Z,101282.25
2023-05-01T16:34:27.462Z,101282.34
2023-05-01T16:36:54.783Z,101283.41
2023-05-01T16:39:22.259Z,101285.59
2023-05-01T16:41:50.669Z,101281.41
2023-05-01T16:44:18.903Z,101280.28
2023-05-01T16:46:53.376Z,101292.03
2023-05-01T16:49:20.296Z,101285.47
2023-05-01T16:51:46.728Z,101295.75
2023-05-01T16:54:13.487Z,101291.03
2023-05-01T16:56:39.934Z,101299.25
2023-05-01T16:59:06.423Z,101296.56
2023-05-01T17:01:33.873Z,101296.78
2023-05-01T17:04:00.809Z,101300.25
2023-05-01T17:06:27.512Z,101298.63
2023-05-01T17:08:54.761Z,101304.84
2023-05-01T17:11:21.562Z,101305.13
2023-05-01T17:13:48.229Z,101309.09
2023-05-01T17:16:14.782Z,101296.84
2023-05-01T17:18:41.340Z,101288.63
2023-05-01T17:21:07.954Z,101293.59
2023-05-01T17:23:34.646Z,101296.06
2023-05-01T17:26:01.120Z,101296.00
2023-05-01T17:28:27.815Z,101302.59
2023-05-01T17:30:54.335Z,101304.78
2023-05-01T17:33:21.448Z,101304.69
2023-05-01T17:35:48.170Z,101304.94
2023-05-01T17:38:14.852Z,101315.16
2023-05-01T17:40:41.300Z,101312.94
2023-05-01T17:43:08.042Z,101307.03
2023-05-01T17:45:34.560Z,101315.00
2023-05-01T17:48:01.267Z,101326.00
2023-05-01T17:50:27.948Z,101322.00
2023-05-01T17:52:54.546Z,101330.88
2023-05-01T17:55:21.120Z,101328.69
2023-05-01T17:57:47.826Z,101335.25
2023-05-01T18:00:14.672Z,101338.13
2023-05-01T18:02:44.383Z,101337.38
2023-05-01T18:05:12.502Z,101329.00
2023-05-01T18:07:39.025Z,101341.88
2023-05-01T18:10:06.116Z,101343.06
2023-05-01T18:12:32.575Z,101341.63
2023-05-01T18:14:59.079Z,101349.22
2023-05-01T18:17:26.001Z,101350.38
2023-05-01T18:19:52.472Z,101348.91
2023-05-01T18:22:19.161Z,101357.91
2023-05-01T18:24:46.125Z,101354.09
2023-05-01T18:27:12.810Z,101356.22
2023-05-01T18:29:39.243Z,101358.25
2023-05-01T18:32:06.809Z,101357.91
2023-05-01T18:34:33.321Z,101354.91
2023-05-01T18:36:59.799Z,101365.56
2023-05-01T18:39:26.496Z,101370.50
2023-05-01T18:41:54.320Z,101367.84
2023-05-01T18:44:20.997Z,101366.84
2023-05-01T18:46:47.532Z,101365.19
2023-05-01T18:49:14.227Z,101376.44
2023-05-01T18:51:40.858Z,101369.63
2023-05-01T18:54:09.797Z,101374.09
2023-05-01T18:56:36.375Z,101375.41
2023-05-01T18:59:02.985Z,101377.06
2023-05-01T19:01:29.569Z,101381.38
2023-05-01T19:03:58.947Z,101389.31
2023-05-01T19:06:28.927Z,101386.47
2023-05-01T19:08:55.741Z,101382.47
2023-05-01T19:11:22.179Z,101385.88
2023-05-01T19:13:49.063Z,101390.81
2023-05-01T19:16:15.638Z,101394.09
2023-05-01T19:18:42.171Z,101393.38
2023-05-01T19:21:08.941Z,101405.25
2023-05-01T19:23:37.332Z,101402.38
2023-05-01T19:26:06.063Z,101409.44
2023-05-01T19:28:32.609Z,101404.09
2023-05-01T19:30:59.187Z,101413.81
2023-05-01T19:33:25.684Z,101420.13
2023-05-01T19:35:52.175Z,101423.38
2023-05-01T19:38:18.760Z,101424.13
2023-05-01T19:40:45.290Z,101422.91
2023-05-01T19:43:14.737Z,101429.13
2023-05-01T19:45:41.957Z,101436.50
2023-05-01T19:48:08.617Z,101441.25
2023-05-01T19:50:35.200Z,101435.28
2023-05-01T19:53:03.342Z,101441.69
2023-05-01T19:55:29.755Z,101441.63
2023-05-01T19:57:56.229Z,101445.34
2023-05-01T20:00:22.689Z,101442.63
2023-05-01T20:02:49.531Z,101443.06
2023-05-01T20:05:16.091Z,101447.91
2023-05-01T20:07:42.569Z,101447.25
2023-05-01T20:10:09.695Z,101453.19
2023-05-01T20:12:36.998Z,101464.75
2023-05-01T20:15:04.338Z,101463.97
2023-05-01T20:17:30.873Z,101473.72
2023-05-01T20:19:57.563Z,101473.91
2023-05-01T20:22:24.464Z,101472.91
2023-05-01T20:24:51.050Z,101473.16
2023-05-01T20:27:17.528Z,101481.94
2023-05-01T20:29:44.193Z,101482.66
2023-05-01T20:32:11.558Z,101480.84
2023-05-01T20:34:37.977Z,101483.13
2023-05-01T20:37:04.546Z,101483.66
2023-05-01T20:39:31.032Z,101490.31
2023-05-01T20:41:59.181Z,101481.00
2023-05-01T20:44:25.629Z,101486.53
2023-05-01T20:46:52.127Z,101485.44
2023-05-01T20:49:20.329Z,101486.00
2023-05-01T20:51:46.782Z,101490.75
2023-05-01T20:54:13.226Z,101491.59
2023-05-01T20:56:39.790Z,101497.75
2023-05-01T20:59:06.618Z,101493.28
2023-05-01T21:01:33.239Z,101494.97
2023-05-01T21:04:00.046Z,101501.13
2023-05-01T21:06:29.769Z,101501.41
2023-05-01T21:08:56.237Z,101497.22
2023-05-01T21:11:22.838Z,101504.31
2023-05-01T21:13:49.411Z,101499.03
2023-05-01T21:16:16.806Z,101498.03
2023-05-01T21:18:43.456Z,101501.66
2023-05-01T21:21:10.672Z,101502.91
2023-05-01T21:23:46.059Z,101494.56
2023-05-01T21:26:14.183Z,101501.50
2023-05-01T21:28:40.697Z,101502.72
2023-05-01T21:31:09.929Z,101506.78
2023-05-01T21:33:36.473Z,101508.34
2023-05-01T21:36:03.602Z,101507.34
2023-05-01T21:38:31.131Z,101517.22
2023-05-01T21:40:57.695Z,101506.09
2023-05-01T21:43:24.127Z,101513.47
2023-05-01T21:45:50.677Z,101519.53
2023-05-01T21:48:19.238Z,101507.19
2023-05-01T21:50:49.085Z,101506.22
2023-05-01T21:53:16.290Z,101508.59
2023-05-01T21:55:46.615Z,101503.59
2023-05-01T21:58:13.632Z,101502.19
2023-05-01T22:00:41.801Z,101505.25
2023-05-01T22:03:09.081Z,101502.06
2023-05-01T22:05:36.334Z,101506.97
2023-05-01T22:08:02.775Z,101510.84
2023-05-01T22:10:29.650Z,101505.97
2023-05-01T22:12:56.236Z,101506.78
2023-05-01T22:15:22.670Z,101513.91
2023-05-01T22:17:49.340Z,101499.44
2023-05-01T22:20:16.093Z,101503.31
2023-05-01T22:22:43.180Z,101515.59
2023-05-01T22:25:10.491Z,101499.16
2023-05-01T22:27:37.703Z,101510.84
2023-05-01T22:30:05.338Z,101516.16
2023-05-01T22:32:31.981Z,101523.13
2023-05-01T22:34:58.606Z,101525.63
2023-05-01T22:37:27.937Z,101526.59
2023-05-01T22:39:54.435Z,101534.00
2023-05-01T22:42:21.755Z,101530.09
2023-05-01T22:44:48.357Z,101529.25
2023-05-01T22:47:14.935Z,101539.13
2023-05-01T22:49:41.465Z,101531.06
2023-05-01T22:52:08.419Z,101539.00
2023-05-01T22:54:34.840Z,101540.38
2023-05-01T22:57:01.384Z,101540.34
2023-05-01T22:59:27.761Z,101542.63
2023-05-01T23:01:54.870Z,101536.50
2023-05-01T23:04:21.668Z,101543.31
2023-05-01T23:06:48.266Z,101547.78
2023-05-01T23:09:15.585Z,101551.53
2023-05-01T23:11:42.484Z,101540.09
2023-05-01T23:14:09.465Z,101553.00
2023-05-01T23:16:41.419Z,101552.75
2023-05-01T23:19:22.029Z,101555.69
2023-05-01T23:21:49.611Z,101552.78
2023-05-01T23:24:18.233Z,101556.09
2023-05-01T23:26:45.856Z,101549.44
2023-05-01T23:29:13.643Z,101560.59
2023-05-01T23:31:47.566Z,101549.16
2023-05-01T23:34:17.531Z,101560.09
2023-05-01T23:36:46.256Z,101560.91
2023-05-01T23:39:14.487Z,101556.59
2023-05-01T23:41:41.552Z,101556.19
2023-05-01T23:44:09.332Z,101562.56
2023-05-01T23:46:36.795Z,101571.06
2023-05-01T23:49:03.434Z,101561.19
2023-05-01T23:51:31.517Z,101561.06
2023-05-01T23:53:58.583Z,101560.34
2023-05-01T23:56:25.509Z,101554.00
2023-05-01T23:58:52.039Z,101557.31
